sensor_id;sensor_type;location;lat;lon;timestamp;pressure;altitude;pressure_sealevel;temperature;humidity
70976;BME280;58635;51.198;6.010;2022-12-07T00:01:14;101614.75;;;8.64;65.73
70976;BME280;58635;51.198;6.010;2022-12-07T00:03:40;101614.09;;;8.62;65.54
70976;BME280;58635;51.198;6.010;2022-12-07T00:06:07;101614.25;;;8.60;65.65
70976;BME280;58635;51.198;6.010;2022-12-07T00:08:34;101622.66;;;8.62;65.69
70976;BME280;58635;51.198;6.010;2022-12-07T00:11:06;101618.47;;;8.61;65.62
70976;BME280;58635;51.198;6.010;2022-12-07T00:13:33;101617.81;;;8.59;65.68
70976;BME280;58635;51.198;6.010;2022-12-07T00:16:11;101617.97;;;8.58;65.54
70976;BME280;58635;51.198;6.010;2022-12-07T00:18:38;101621.53;;;8.57;65.47
70976;BME280;58635;51.198;6.010;2022-12-07T00:21:06;101621.69;;;8.55;65.83
70976;BME280;58635;51.198;6.010;2022-12-07T00:23:33;101617.34;;;8.56;65.53
70976;BME280;58635;51.198;6.010;2022-12-07T00:28:35;101613.59;;;8.50;65.66
70976;BME280;58635;51.198;6.010;2022-12-07T00:31:10;101607.00;;;8.47;65.56
70976;BME280;58635;51.198;6.010;2022-12-07T00:33:37;101616.34;;;8.48;65.77
70976;BME280;58635;51.198;6.010;2022-12-07T00:36:06;101614.56;;;8.49;65.92
70976;BME280;58635;51.198;6.010;2022-12-07T00:38:33;101620.38;;;8.51;65.76
70976;BME280;58635;51.198;6.010;2022-12-07T00:41:01;101612.81;;;8.49;65.72
70976;BME280;58635;51.198;6.010;2022-12-07T00:43:27;101613.59;;;8.50;65.89
70976;BME280;58635;51.198;6.010;2022-12-07T00:45:54;101609.09;;;8.52;65.91
70976;BME280;58635;51.198;6.010;2022-12-07T00:48:20;101593.78;;;8.50;65.86
70976;BME280;58635;51.198;6.010;2022-12-07T00:50:45;101598.13;;;8.50;65.94
70976;BME280;58635;51.198;6.010;2022-12-07T00:53:11;101593.94;;;8.49;65.82
70976;BME280;58635;51.198;6.010;2022-12-07T00:55:37;101598.94;;;8.50;65.94
70976;BME280;58635;51.198;6.010;2022-12-07T00:58:03;101598.13;;;8.50;65.85
70976;BME280;58635;51.198;6.010;2022-12-07T01:00:29;101603.28;;;8.50;65.77
70976;BME280;58635;51.198;6.010;2022-12-07T01:02:54;101593.78;;;8.50;66.07
70976;BME280;58635;51.198;6.010;2022-12-07T01:05:19;101596.19;;;8.52;65.93
70976;BME280;58635;51.198;6.010;2022-12-07T01:07:45;101603.00;;;8.53;65.94
70976;BME280;58635;51.198;6.010;2022-12-07T01:10:12;101601.22;;;8.54;65.89
70976;BME280;58635;51.198;6.010;2022-12-07T01:12:38;101598.66;;;8.54;65.86
70976;BME280;58635;51.198;6.010;2022-12-07T01:15:04;101598.47;;;8.55;65.80
70976;BME280;58635;51.198;6.010;2022-12-07T01:17:29;101603.63;;;8.55;65.77
70976;BME280;58635;51.198;6.010;2022-12-07T01:19:55;101604.59;;;8.54;65.89
70976;BME280;58635;51.198;6.010;2022-12-07T01:22:20;101598.66;;;8.54;65.79
70976;BME280;58635;51.198;6.010;2022-12-07T01:24:46;101603.00;;;8.53;65.86
70976;BME280;58635;51.198;6.010;2022-12-07T01:27:13;101603.94;;;8.52;66.02
70976;BME280;58635;51.198;6.010;2022-12-07T01:29:39;101601.53;;;8.50;66.02
70976;BME280;58635;51.198;6.010;2022-12-07T01:32:04;101599.09;;;8.49;65.97
70976;BME280;58635;51.198;6.010;2022-12-07T01:34:30;101597.66;;;8.46;66.29
70976;BME280;58635;51.198;6.010;2022-12-07T01:36:55;101608.78;;;8.47;66.09
70976;BME280;58635;51.198;6.010;2022-12-07T01:39:21;101606.19;;;8.47;66.08
70976;BME280;58635;51.198;6.010;2022-12-07T01:41:47;101604.44;;;8.47;66.02
70976;BME280;58635;51.198;6.010;2022-12-07T01:44:22;101601.84;;;8.47;65.94
70976;BME280;58635;51.198;6.010;2022-12-07T01:46:55;101593.63;;;8.44;65.88
70976;BME280;58635;51.198;6.010;2022-12-07T01:49:43;101594.75;;;8.41;66.00
70976;BME280;58635;51.198;6.010;2022-12-07T01:52:13;101600.84;;;8.40;65.93
70976;BME280;58635;51.198;6.010;2022-12-07T01:54:42;101595.22;;;8.37;65.94
70976;BME280;58635;51.198;6.010;2022-12-07T01:57:09;101597.97;;;8.35;65.99
70976;BME280;58635;51.198;6.010;2022-12-07T01:59:38;101604.09;;;8.34;65.90
70976;BME280;58635;51.198;6.010;2022-12-07T02:02:07;101592.28;;;8.32;65.98
70976;BME280;58635;51.198;6.010;2022-12-07T02:04:35;101595.31;;;8.27;66.08
70976;BME280;58635;51.198;6.010;2022-12-07T02:07:03;101601.63;;;8.25;66.01
70976;BME280;58635;51.198;6.010;2022-12-07T02:09:29;101592.59;;;8.20;66.18
70976;BME280;58635;51.198;6.010;2022-12-07T02:11:55;101599.53;;;8.20;66.21
70976;BME280;58635;51.198;6.010;2022-12-07T02:14:21;101600.50;;;8.19;66.28
70976;BME280;58635;51.198;6.010;2022-12-07T02:16:57;101601.94;;;8.21;66.23
70976;BME280;58635;51.198;6.010;2022-12-07T02:28:03;101596.94;;;8.20;66.18
70976;BME280;58635;51.198;6.010;2022-12-07T02:30:33;101602.75;;;8.22;66.34
70976;BME280;58635;51.198;6.010;2022-12-07T02:33:13;101600.00;;;8.24;66.12
70976;BME280;58635;51.198;6.010;2022-12-07T02:35:46;101588.72;;;8.25;66.32
70976;BME280;58635;51.198;6.010;2022-12-07T02:41:00;101593.56;;;8.28;66.29
70976;BME280;58635;51.198;6.010;2022-12-07T02:43:30;101591.94;;;8.27;66.23
70976;BME280;58635;51.198;6.010;2022-12-07T02:46:06;101587.44;;;8.29;66.20
70976;BME280;58635;51.198;6.010;2022-12-07T02:48:33;101580.53;;;8.29;66.34
70976;BME280;58635;51.198;6.010;2022-12-07T02:50:59;101582.16;;;8.30;66.39
70976;BME280;58635;51.198;6.010;2022-12-07T02:53:32;101585.53;;;8.31;66.31
70976;BME280;58635;51.198;6.010;2022-12-07T02:56:02;101583.75;;;8.31;66.32
70976;BME280;58635;51.198;6.010;2022-12-07T02:58:50;101579.56;;;8.30;66.23
70976;BME280;58635;51.198;6.010;2022-12-07T03:04:14;101581.97;;;8.24;66.29
70976;BME280;58635;51.198;6.010;2022-12-07T03:06:53;101587.91;;;8.24;66.28
70976;BME280;58635;51.198;6.010;2022-12-07T03:09:28;101591.31;;;8.25;66.28
70976;BME280;58635;51.198;6.010;2022-12-07T03:12:11;101585.34;;;8.24;66.28
70976;BME280;58635;51.198;6.010;2022-12-07T03:14:44;101583.56;;;8.25;66.56
70976;BME280;58635;51.198;6.010;2022-12-07T03:17:15;101582.78;;;8.24;66.20
70976;BME280;58635;51.198;6.010;2022-12-07T03:19:43;101581.00;;;8.25;66.20
70976;BME280;58635;51.198;6.010;2022-12-07T03:22:11;101589.53;;;8.25;66.34
70976;BME280;58635;51.198;6.010;2022-12-07T03:24:53;101586.94;;;8.25;66.22
70976;BME280;58635;51.198;6.010;2022-12-07T03:27:33;101586.16;;;8.25;66.33
70976;BME280;58635;51.198;6.010;2022-12-07T03:30:06;101583.41;;;8.26;66.26
70976;BME280;58635;51.198;6.010;2022-12-07T03:32:37;101574.22;;;8.24;66.26
70976;BME280;58635;51.198;6.010;2022-12-07T03:35:09;101575.84;;;8.25;66.26
70976;BME280;58635;51.198;6.010;2022-12-07T03:37:41;101573.44;;;8.23;66.29
70976;BME280;58635;51.198;6.010;2022-12-07T03:42:40;101580.19;;;8.24;66.31
70976;BME280;58635;51.198;6.010;2022-12-07T03:45:07;101575.84;;;8.25;66.20
70976;BME280;58635;51.198;6.010;2022-12-07T03:47:37;101586.94;;;8.25;66.12
70976;BME280;58635;51.198;6.010;2022-12-07T03:52:47;101578.59;;;8.23;66.36
70976;BME280;58635;51.198;6.010;2022-12-07T03:57:47;101578.59;;;8.23;66.21
70976;BME280;58635;51.198;6.010;2022-12-07T04:00:14;101582.28;;;8.20;65.98
70976;BME280;58635;51.198;6.010;2022-12-07T04:02:41;101578.09;;;8.19;66.18
70976;BME280;58635;51.198;6.010;2022-12-07T04:05:07;101572.13;;;8.19;66.19
70976;BME280;58635;51.198;6.010;2022-12-07T04:07:33;101569.84;;;8.16;66.26
70976;BME280;58635;51.198;6.010;2022-12-07T04:09:58;101571.78;;;8.14;66.22
70976;BME280;58635;51.198;6.010;2022-12-07T04:12:24;101565.19;;;8.11;66.18
70976;BME280;58635;51.198;6.010;2022-12-07T04:14:49;101577.25;;;8.11;66.33
70976;BME280;58635;51.198;6.010;2022-12-07T04:17:15;101575.34;;;8.13;66.29
70976;BME280;58635;51.198;6.010;2022-12-07T04:19:40;101572.91;;;8.11;66.10
70976;BME280;58635;51.198;6.010;2022-12-07T04:22:06;101581.44;;;8.12;66.23
70976;BME280;58635;51.198;6.010;2022-12-07T04:24:32;101588.22;;;8.13;66.34
70976;BME280;58635;51.198;6.010;2022-12-07T04:26:57;101579.69;;;8.12;66.34
70976;BME280;58635;51.198;6.010;2022-12-07T04:29:23;101579.69;;;8.12;66.32
70976;BME280;58635;51.198;6.010;2022-12-07T04:31:49;101573.56;;;8.13;66.21
70976;BME280;58635;51.198;6.010;2022-12-07T04:34:15;101576.94;;;8.14;66.13
70976;BME280;58635;51.198;6.010;2022-12-07T04:36:42;101573.41;;;8.15;66.41
70976;BME280;58635;51.198;6.010;2022-12-07T04:39:19;101574.22;;;8.15;66.18
70976;BME280;58635;51.198;6.010;2022-12-07T04:41:44;101569.06;;;8.15;66.35
70976;BME280;58635;51.198;6.010;2022-12-07T04:44:11;101569.06;;;8.15;66.23
70976;BME280;58635;51.198;6.010;2022-12-07T04:46:39;101565.66;;;8.15;66.36
70976;BME280;58635;51.198;6.010;2022-12-07T04:49:04;101568.25;;;8.15;66.41
70976;BME280;58635;51.198;6.010;2022-12-07T04:51:30;101568.25;;;8.15;66.17
70976;BME280;58635;51.198;6.010;2022-12-07T04:53:56;101573.25;;;8.16;66.23
70976;BME280;58635;51.198;6.010;2022-12-07T04:56:22;101565.50;;;8.16;66.19
70976;BME280;58635;51.198;6.010;2022-12-07T04:58:48;101573.25;;;8.16;66.09
70976;BME280;58635;51.198;6.010;2022-12-07T05:01:16;101568.09;;;8.16;66.23
70976;BME280;58635;51.198;6.010;2022-12-07T05:03:42;101563.91;;;8.15;66.28
70976;BME280;58635;51.198;6.010;2022-12-07T05:06:07;101562.94;;;8.16;66.38
70976;BME280;58635;51.198;6.010;2022-12-07T05:08:34;101574.88;;;8.17;66.34
70976;BME280;58635;51.198;6.010;2022-12-07T05:11:00;101563.78;;;8.17;66.07
70976;BME280;58635;51.198;6.010;2022-12-07T05:13:26;101564.56;;;8.17;66.03
70976;BME280;58635;51.198;6.010;2022-12-07T05:15:52;101568.75;;;8.18;66.16
70976;BME280;58635;51.198;6.010;2022-12-07T05:18:17;101557.66;;;8.18;66.04
70976;BME280;58635;51.198;6.010;2022-12-07T05:20:43;101560.22;;;8.18;66.16
70976;BME280;58635;51.198;6.010;2022-12-07T05:23:09;101561.03;;;8.18;66.02
70976;BME280;58635;51.198;6.010;2022-12-07T05:25:34;101568.44;;;8.21;66.08
70976;BME280;58635;51.198;6.010;2022-12-07T05:28:00;101567.63;;;8.21;66.12
70976;BME280;58635;51.198;6.010;2022-12-07T05:30:25;101570.03;;;8.23;66.27
70976;BME280;58635;51.198;6.010;2022-12-07T05:32:51;101559.91;;;8.21;66.02
70976;BME280;58635;51.198;6.010;2022-12-07T05:35:17;101559.56;;;8.24;65.90
70976;BME280;58635;51.198;6.010;2022-12-07T05:37:43;101566.50;;;8.24;66.04
70976;BME280;58635;51.198;6.010;2022-12-07T05:40:10;101559.56;;;8.24;66.12
70976;BME280;58635;51.198;6.010;2022-12-07T05:42:35;101559.75;;;8.23;66.05
70976;BME280;58635;51.198;6.010;2022-12-07T05:45:01;101551.38;;;8.20;66.12
70976;BME280;58635;51.198;6.010;2022-12-07T05:47:27;101564.72;;;8.24;66.11
70976;BME280;58635;51.198;6.010;2022-12-07T05:49:52;101557.00;;;8.24;66.03
70976;BME280;58635;51.198;6.010;2022-12-07T05:52:17;101563.91;;;8.24;66.04
70976;BME280;58635;51.198;6.010;2022-12-07T05:54:43;101563.91;;;8.24;66.13
70976;BME280;58635;51.198;6.010;2022-12-07T05:57:08;101557.97;;;8.23;66.20
70976;BME280;58635;51.198;6.010;2022-12-07T05:59:34;101557.16;;;8.23;66.19
70976;BME280;58635;51.198;6.010;2022-12-07T06:02:03;101557.16;;;8.23;66.05
70976;BME280;58635;51.198;6.010;2022-12-07T06:04:35;101563.91;;;8.24;66.13
70976;BME280;58635;51.198;6.010;2022-12-07T06:07:02;101561.34;;;8.24;66.26
70976;BME280;58635;51.198;6.010;2022-12-07T06:09:28;101557.97;;;8.23;66.15
70976;BME280;58635;51.198;6.010;2022-12-07T06:11:58;101559.56;;;8.24;66.20
70976;BME280;58635;51.198;6.010;2022-12-07T06:14:43;101560.69;;;8.21;66.16
70976;BME280;58635;51.198;6.010;2022-12-07T06:17:09;101561.50;;;8.22;66.26
70976;BME280;58635;51.198;6.010;2022-12-07T06:19:34;101566.50;;;8.24;66.31
70976;BME280;58635;51.198;6.010;2022-12-07T06:22:01;101563.13;;;8.23;66.17
70976;BME280;58635;51.198;6.010;2022-12-07T06:24:26;101567.47;;;8.23;66.39
70976;BME280;58635;51.198;6.010;2022-12-07T06:26:52;101562.47;;;8.21;66.20
70976;BME280;58635;51.198;6.010;2022-12-07T06:29:18;101558.13;;;8.21;66.17
70976;BME280;58635;51.198;6.010;2022-12-07T06:31:44;101561.03;;;8.18;66.06
70976;BME280;58635;51.198;6.010;2022-12-07T06:34:15;101559.25;;;8.19;66.14
70976;BME280;58635;51.198;6.010;2022-12-07T06:36:41;101555.19;;;8.16;66.20
70976;BME280;58635;51.198;6.010;2022-12-07T06:39:07;101558.75;;;8.15;66.21
70976;BME280;58635;51.198;6.010;2022-12-07T06:41:38;101552.13;;;8.13;66.17
70976;BME280;58635;51.198;6.010;2022-12-07T06:44:05;101566.78;;;8.12;66.14
70976;BME280;58635;51.198;6.010;2022-12-07T06:46:30;101561.97;;;8.09;66.18
70976;BME280;58635;51.198;6.010;2022-12-07T06:48:56;101562.13;;;8.08;66.18
70976;BME280;58635;51.198;6.010;2022-12-07T06:51:21;101559.84;;;8.05;66.06
70976;BME280;58635;51.198;6.010;2022-12-07T06:53:47;101561.13;;;8.01;66.32
70976;BME280;58635;51.198;6.010;2022-12-07T06:56:12;101564.84;;;7.98;66.19
70976;BME280;58635;51.198;6.010;2022-12-07T06:58:38;101572.72;;;7.97;66.25
70976;BME280;58635;51.198;6.010;2022-12-07T07:01:09;101570.31;;;7.95;66.30
70976;BME280;58635;51.198;6.010;2022-12-07T07:03:34;101565.31;;;7.94;66.30
70976;BME280;58635;51.198;6.010;2022-12-07T07:06:00;101566.13;;;7.94;66.47
70976;BME280;58635;51.198;6.010;2022-12-07T07:08:25;101574.78;;;7.93;66.38
70976;BME280;58635;51.198;6.010;2022-12-07T07:10:52;101570.47;;;7.94;66.38
70976;BME280;58635;51.198;6.010;2022-12-07T07:13:17;101565.31;;;7.94;66.45
70976;BME280;58635;51.198;6.010;2022-12-07T07:15:43;101569.50;;;7.95;66.62
70976;BME280;58635;51.198;6.010;2022-12-07T07:18:09;101562.59;;;7.95;66.55
70976;BME280;58635;51.198;6.010;2022-12-07T07:20:34;101571.13;;;7.96;66.46
70976;BME280;58635;51.198;6.010;2022-12-07T07:23:00;101563.38;;;7.96;66.49
70976;BME280;58635;51.198;6.010;2022-12-07T07:25:25;101561.09;;;7.92;66.57
70976;BME280;58635;51.198;6.010;2022-12-07T07:27:50;101562.22;;;7.90;66.59
70976;BME280;58635;51.198;6.010;2022-12-07T07:30:16;101572.69;;;7.88;66.63
70976;BME280;58635;51.198;6.010;2022-12-07T07:32:41;101574.31;;;7.89;66.64
70976;BME280;58635;51.198;6.010;2022-12-07T07:35:07;101571.06;;;7.87;66.61
70976;BME280;58635;51.198;6.010;2022-12-07T07:37:33;101570.28;;;7.87;66.56
70976;BME280;58635;51.198;6.010;2022-12-07T07:39:59;101570.44;;;7.85;66.58
70976;BME280;58635;51.198;6.010;2022-12-07T07:42:24;101573.00;;;7.85;66.44
70976;BME280;58635;51.198;6.010;2022-12-07T07:44:50;101564.63;;;7.83;66.53
70976;BME280;58635;51.198;6.010;2022-12-07T07:47:15;101574.28;;;7.81;66.61
70976;BME280;58635;51.198;6.010;2022-12-07T07:49:41;101575.09;;;7.82;66.52
70976;BME280;58635;51.198;6.010;2022-12-07T07:52:06;101571.72;;;7.81;66.33
70976;BME280;58635;51.198;6.010;2022-12-07T07:54:32;101574.41;;;7.80;66.48
70976;BME280;58635;51.198;6.010;2022-12-07T07:56:57;101563.31;;;7.79;66.51
70976;BME280;58635;51.198;6.010;2022-12-07T07:59:23;101569.44;;;7.78;66.38
70976;BME280;58635;51.198;6.010;2022-12-07T08:01:48;101569.44;;;7.78;66.34
70976;BME280;58635;51.198;6.010;2022-12-07T08:04:13;101576.34;;;7.78;66.46
70976;BME280;58635;51.198;6.010;2022-12-07T08:06:39;101577.16;;;7.78;66.57
70976;BME280;58635;51.198;6.010;2022-12-07T08:09:04;101577.16;;;7.78;66.64
70976;BME280;58635;51.198;6.010;2022-12-07T08:11:31;101580.53;;;7.79;66.51
70976;BME280;58635;51.198;6.010;2022-12-07T08:13:57;101581.50;;;7.78;66.52
70976;BME280;58635;51.198;6.010;2022-12-07T08:16:22;101585.19;;;7.75;66.41
70976;BME280;58635;51.198;6.010;2022-12-07T08:18:48;101588.25;;;7.79;66.58
70976;BME280;58635;51.198;6.010;2022-12-07T08:21:14;101591.66;;;7.79;66.61
70976;BME280;58635;51.198;6.010;2022-12-07T08:23:40;101591.66;;;7.79;66.41
70976;BME280;58635;51.198;6.010;2022-12-07T08:26:08;101591.34;;;7.82;66.70
70976;BME280;58635;51.198;6.010;2022-12-07T08:28:34;101586.84;;;7.84;66.56
70976;BME280;58635;51.198;6.010;2022-12-07T08:31:01;101597.47;;;7.89;66.52
70976;BME280;58635;51.198;6.010;2022-12-07T08:33:27;101585.25;;;7.91;66.43
70976;BME280;58635;51.198;6.010;2022-12-07T08:35:52;101589.16;;;7.96;66.46
70976;BME280;58635;51.198;6.010;2022-12-07T08:38:18;101587.06;;;7.99;66.33
70976;BME280;58635;51.198;6.010;2022-12-07T08:40:44;101597.03;;;8.02;66.52
70976;BME280;58635;51.198;6.010;2022-12-07T08:43:10;101596.59;;;8.07;66.43
70976;BME280;58635;51.198;6.010;2022-12-07T08:45:35;101590.31;;;8.09;66.37
70976;BME280;58635;51.198;6.010;2022-12-07T08:48:05;101597.41;;;8.15;66.32
70976;BME280;58635;51.198;6.010;2022-12-07T08:50:32;101595.97;;;8.21;66.37
70976;BME280;58635;51.198;6.010;2022-12-07T08:52:58;101586.94;;;8.25;66.27
70976;BME280;58635;51.198;6.010;2022-12-07T08:55:25;101585.81;;;8.28;66.14
70976;BME280;58635;51.198;6.010;2022-12-07T08:57:52;101591.78;;;8.28;66.26
70976;BME280;58635;51.198;6.010;2022-12-07T09:00:18;101586.34;;;8.31;65.93
70976;BME280;58635;51.198;6.010;2022-12-07T09:02:44;101589.44;;;8.35;66.06
70976;BME280;58635;51.198;6.010;2022-12-07T09:05:11;101591.69;;;8.38;66.12
70976;BME280;58635;51.198;6.010;2022-12-07T09:07:38;101593.63;;;8.44;66.03
70976;BME280;58635;51.198;6.010;2022-12-07T09:10:04;101592.50;;;8.46;65.92
70976;BME280;58635;51.198;6.010;2022-12-07T09:12:30;101592.97;;;8.50;66.08
70976;BME280;58635;51.198;6.010;2022-12-07T09:14:56;101592.81;;;8.52;65.86
70976;BME280;58635;51.198;6.010;2022-12-07T09:17:21;101593.31;;;8.55;65.92
70976;BME280;58635;51.198;6.010;2022-12-07T09:19:47;101598.00;;;8.60;65.94
70976;BME280;58635;51.198;6.010;2022-12-07T09:22:12;101602.69;;;8.64;65.96
70976;BME280;58635;51.198;6.010;2022-12-07T09:24:37;101602.34;;;8.67;65.60
70976;BME280;58635;51.198;6.010;2022-12-07T09:27:04;101598.47;;;8.71;65.65
70976;BME280;58635;51.198;6.010;2022-12-07T09:29:29;101597.50;;;8.72;65.49
70976;BME280;58635;51.198;6.010;2022-12-07T09:31:54;101601.69;;;8.73;65.41
70976;BME280;58635;51.198;6.010;2022-12-07T09:34:20;101601.69;;;8.73;65.43
70976;BME280;58635;51.198;6.010;2022-12-07T09:36:46;101598.31;;;8.73;65.20
70976;BME280;58635;51.198;6.010;2022-12-07T09:39:11;101597.50;;;8.72;65.42
70976;BME280;58635;51.198;6.010;2022-12-07T09:41:42;101610.41;;;8.72;65.32
70976;BME280;58635;51.198;6.010;2022-12-07T09:44:12;101599.44;;;8.70;65.45
70976;BME280;58635;51.198;6.010;2022-12-07T09:46:42;101599.44;;;8.70;65.39
70976;BME280;58635;51.198;6.010;2022-12-07T09:49:17;101599.94;;;8.66;65.30
70976;BME280;58635;51.198;6.010;2022-12-07T09:51:44;101599.44;;;8.62;65.42
70976;BME280;58635;51.198;6.010;2022-12-07T09:54:13;101601.53;;;8.59;65.40
70976;BME280;58635;51.198;6.010;2022-12-07T09:56:39;101597.34;;;8.58;65.33
70976;BME280;58635;51.198;6.010;2022-12-07T09:59:04;101599.75;;;8.59;65.30
70976;BME280;58635;51.198;6.010;2022-12-07T10:01:32;101604.13;;;8.67;65.30
70976;BME280;58635;51.198;6.010;2022-12-07T10:04:18;101599.75;;;8.75;65.19
70976;BME280;58635;51.198;6.010;2022-12-07T10:06:44;101595.41;;;8.84;65.27
70976;BME280;58635;51.198;6.010;2022-12-07T10:09:21;101592.84;;;8.92;65.15
70976;BME280;58635;51.198;6.010;2022-12-07T10:12:07;101591.38;;;8.98;65.02
70976;BME280;58635;51.198;6.010;2022-12-07T10:14:39;101587.34;;;9.03;64.84
70976;BME280;58635;51.198;6.010;2022-12-07T10:17:41;101580.41;;;9.04;64.75
70976;BME280;58635;51.198;6.010;2022-12-07T10:22:57;101582.50;;;9.08;64.72
70976;BME280;58635;51.198;6.010;2022-12-07T10:25:26;101574.59;;;9.10;64.79
70976;BME280;58635;51.198;6.010;2022-12-07T10:30:48;101576.53;;;9.16;64.57
70976;BME280;58635;51.198;6.010;2022-12-07T10:39:15;101568.25;;;9.29;64.50
70976;BME280;58635;51.198;6.010;2022-12-07T10:42:01;101564.69;;;9.38;64.03
70976;BME280;58635;51.198;6.010;2022-12-07T10:44:32;101562.06;;;9.46;64.13
70976;BME280;58635;51.198;6.010;2022-12-07T10:52:34;101543.63;;;9.57;63.86
70976;BME280;58635;51.198;6.010;2022-12-07T10:55:13;101539.94;;;9.60;63.73
70976;BME280;58635;51.198;6.010;2022-12-07T10:58:00;101538.78;;;9.62;63.72
70976;BME280;58635;51.198;6.010;2022-12-07T11:03:36;101533.28;;;9.65;63.68
70976;BME280;58635;51.198;6.010;2022-12-07T11:06:11;101529.53;;;9.68;63.59
70976;BME280;58635;51.198;6.010;2022-12-07T11:12:02;101522.28;;;9.72;63.46
70976;BME280;58635;51.198;6.010;2022-12-07T11:14:43;101520.97;;;9.76;63.44
70976;BME280;58635;51.198;6.010;2022-12-07T11:17:23;101508.50;;;9.79;63.43
70976;BME280;58635;51.198;6.010;2022-12-07T11:30:22;101497.78;;;9.90;62.78
70976;BME280;58635;51.198;6.010;2022-12-07T11:36:10;101493.31;;;9.84;62.89
70976;BME280;58635;51.198;6.010;2022-12-07T11:38:46;101496.88;;;9.83;62.79
70976;BME280;58635;51.198;6.010;2022-12-07T11:41:28;101490.06;;;9.82;62.80
70976;BME280;58635;51.198;6.010;2022-12-07T11:44:01;101491.69;;;9.83;63.26
70976;BME280;58635;51.198;6.010;2022-12-07T11:47:02;101488.94;;;9.85;62.87
70976;BME280;58635;51.198;6.010;2022-12-07T11:50:05;101482.00;;;9.85;62.77
70976;BME280;58635;51.198;6.010;2022-12-07T11:55:06;101469.25;;;9.84;63.04
70976;BME280;58635;51.198;6.010;2022-12-07T11:57:42;101473.88;;;9.88;62.84
70976;BME280;58635;51.198;6.010;2022-12-07T12:00:15;101472.56;;;9.92;62.59
70976;BME280;58635;51.198;6.010;2022-12-07T12:02:59;101470.63;;;9.94;62.69
70976;BME280;58635;51.198;6.010;2022-12-07T12:05:26;101467.53;;;9.99;62.46
70976;BME280;58635;51.198;6.010;2022-12-07T12:21:28;101467.47;;;10.07;62.10
70976;BME280;58635;51.198;6.010;2022-12-07T12:26:25;101454.16;;;10.18;62.20
70976;BME280;58635;51.198;6.010;2022-12-07T12:28:58;101450.06;;;10.24;62.07
70976;BME280;58635;51.198;6.010;2022-12-07T12:33:55;101445.81;;;10.31;62.17
70976;BME280;58635;51.198;6.010;2022-12-07T12:46:54;101429.72;;;10.44;61.88
70976;BME280;58635;51.198;6.010;2022-12-07T12:52:01;101416.84;;;10.50;61.54
70976;BME280;58635;51.198;6.010;2022-12-07T12:55:16;101415.34;;;10.56;61.75
70976;BME280;58635;51.198;6.010;2022-12-07T12:57:52;101422.75;;;10.59;61.47
70976;BME280;58635;51.198;6.010;2022-12-07T13:00:32;101413.41;;;10.58;61.50
70976;BME280;58635;51.198;6.010;2022-12-07T13:02:59;101412.41;;;10.59;61.54
70976;BME280;58635;51.198;6.010;2022-12-07T13:05:27;101406.16;;;10.53;61.46
70976;BME280;58635;51.198;6.010;2022-12-07T13:07:54;101409.81;;;10.59;61.43
70976;BME280;58635;51.198;6.010;2022-12-07T13:15:35;101406.69;;;10.49;61.16
70976;BME280;58635;51.198;6.010;2022-12-07T13:18:04;101412.22;;;10.46;61.44
70976;BME280;58635;51.198;6.010;2022-12-07T13:20:52;101413.91;;;10.39;61.46
70976;BME280;58635;51.198;6.010;2022-12-07T13:23:21;101415.78;;;10.30;61.47
70976;BME280;58635;51.198;6.010;2022-12-07T13:28:46;101408.13;;;10.14;61.38
70976;BME280;58635;51.198;6.010;2022-12-07T13:33:48;101399.81;;;10.04;61.68
70976;BME280;58635;51.198;6.010;2022-12-07T13:36:30;101401.59;;;10.03;61.59
70976;BME280;58635;51.198;6.010;2022-12-07T13:41:42;101399.34;;;10.00;61.66
70976;BME280;58635;51.198;6.010;2022-12-07T13:44:11;101393.19;;;10.01;61.90
70976;BME280;58635;51.198;6.010;2022-12-07T13:46:47;101382.25;;;9.99;61.90
70976;BME280;58635;51.198;6.010;2022-12-07T13:49:26;101390.63;;;10.01;61.95
70976;BME280;58635;51.198;6.010;2022-12-07T13:51:52;101388.84;;;10.02;61.91
70976;BME280;58635;51.198;6.010;2022-12-07T13:54:18;101384.66;;;10.01;62.16
70976;BME280;58635;51.198;6.010;2022-12-07T13:56:49;101386.00;;;9.96;62.32
70976;BME280;58635;51.198;6.010;2022-12-07T13:59:23;101377.25;;;9.98;62.26
70976;BME280;58635;51.198;6.010;2022-12-07T14:01:50;101383.03;;;10.00;62.33
70976;BME280;58635;51.198;6.010;2022-12-07T14:04:37;101379.47;;;10.01;62.22
70976;BME280;58635;51.198;6.010;2022-12-07T14:07:27;101377.69;;;10.01;62.25
70976;BME280;58635;51.198;6.010;2022-12-07T14:09:59;101378.31;;;10.03;62.19
70976;BME280;58635;51.198;6.010;2022-12-07T14:12:26;101383.50;;;10.03;62.18
70976;BME280;58635;51.198;6.010;2022-12-07T14:14:53;101367.09;;;9.96;62.21
70976;BME280;58635;51.198;6.010;2022-12-07T14:17:22;101368.34;;;10.00;62.23
70976;BME280;58635;51.198;6.010;2022-12-07T14:24:45;101355.31;;;9.93;62.25
70976;BME280;58635;51.198;6.010;2022-12-07T14:27:22;101341.50;;;9.86;62.29
70976;BME280;58635;51.198;6.010;2022-12-07T14:29:51;101357.63;;;9.88;62.27
70976;BME280;58635;51.198;6.010;2022-12-07T14:32:27;101351.66;;;9.88;62.37
70976;BME280;58635;51.198;6.010;2022-12-07T14:34:59;101342.28;;;9.87;62.51
70976;BME280;58635;51.198;6.010;2022-12-07T14:37:26;101335.88;;;9.83;62.56
70976;BME280;58635;51.198;6.010;2022-12-07T14:39:52;101335.72;;;9.84;62.42
70976;BME280;58635;51.198;6.010;2022-12-07T14:42:18;101334.91;;;9.84;62.66
70976;BME280;58635;51.198;6.010;2022-12-07T14:44:44;101338.63;;;9.81;62.81
70976;BME280;58635;51.198;6.010;2022-12-07T14:47:10;101334.59;;;9.79;62.67
70976;BME280;58635;51.198;6.010;2022-12-07T14:49:36;101329.97;;;9.74;62.96
70976;BME280;58635;51.198;6.010;2022-12-07T14:52:01;101340.97;;;9.68;62.81
70976;BME280;58635;51.198;6.010;2022-12-07T14:54:30;101340.97;;;9.68;62.83
70976;BME280;58635;51.198;6.010;2022-12-07T14:56:56;101331.53;;;9.60;62.98
70976;BME280;58635;51.198;6.010;2022-12-07T14:59:21;101330.09;;;9.58;62.98
70976;BME280;58635;51.198;6.010;2022-12-07T15:01:47;101318.69;;;9.52;63.11
70976;BME280;58635;51.198;6.010;2022-12-07T15:04:12;101328.66;;;9.55;62.90